Flight Track Log - Related Links

Times and Time Zones

All times are in EDT time to prevent confusion due to time zone crossing. See the GJS3706 flight status page for this flight to view local times or setup timezone preferences in your user account.

Time Position Orientation Groundspeed Altitude Reporting Facility
EDT Latitude Longitude Course Direction KTS MPH feet Rate Location/Type
Fri 11:35:21 AM 42.0167 -87.8500 199° South 195 224 2,900  Level Chicago TRACON
Fri 11:36:21 AM 41.9667 -87.8000 143° Southeast 249 287 4,200 1,050 Climbing Chicago TRACON
Fri 11:37:21 AM 41.9000 -87.8333 200° South 249 287 5,000 1,828 Climbing Chicago TRACON
Fri 11:38:00 AM 41.7017 -87.5803 159° South  Level Estimated
Fri 11:39:00 AM 41.6315 -87.4992 153° Southeast  Level Estimated
Fri 11:39:15 AM 41.7881 -87.8731 195° South 270 311 9,500  Level Chicago Center
Fri 11:40:00 AM 41.5524 -87.5359 199° South  Level FlightAware Approximate
Fri 11:40:17 AM 41.7117 -87.8092 148° Southeast 269 310 12,900  Level Chicago Center
Fri 11:41:19 AM 41.6431 -87.7539 149° Southeast 284 327 15,100 2,177 Climbing Chicago Center
Fri 11:42:21 AM 41.5675 -87.6917 148° Southeast 311 358 17,400 1,854 Climbing Chicago Center
Fri 11:43:22 AM 41.4872 -87.6297 150° Southeast 326 375 18,900 1,512 Climbing Chicago Center
Fri 11:44:24 AM 41.4014 -87.5631 150° Southeast 347 399 20,500 1,016 Climbing Chicago Center
Fri 11:45:26 AM 41.3122 -87.4947 150° Southeast 362 417 21,000 242 Climbing Chicago Center
Fri 11:46:28 AM 41.2231 -87.4244 149° Southeast 369 425 21,000  Level Chicago Center
Fri 11:47:29 AM 41.1303 -87.3567 151° Southeast 377 434 21,000  Level Chicago Center
Fri 11:48:31 AM 41.0247 -87.2725 149° Southeast 372 428 21,000  Level Chicago Center
Fri 11:49:33 AM 40.9339 -87.2044 150° Southeast 374 430 21,000  Level Chicago Center
Fri 11:50:34 AM 40.8433 -87.1358 150° Southeast 375 432 21,000  Level Chicago Center
Fri 11:51:36 AM 40.7533 -87.0675 150° Southeast 375 432 21,000  Level Chicago Center
Fri 11:52:38 AM 40.6558 -86.9939 150° Southeast 376 433 21,000  Level Chicago Center
Fri 11:53:39 AM 40.5656 -86.9256 150° Southeast 376 433 21,000  Level Chicago Center
Fri 11:54:41 AM 40.4767 -86.8575 150° Southeast 373 429 21,000  Level Chicago Center
Fri 11:55:43 AM 40.3864 -86.7894 150° Southeast 374 430 21,000  Level Chicago Center
Fri 11:56:44 AM 40.2953 -86.7217 150° Southeast 377 434 21,000  Level Chicago Center
Fri 11:57:46 AM 40.2033 -86.6556 151° Southeast 378 435 21,000  Level Chicago Center
Fri 11:58:47 AM 40.0947 -86.5736 150° Southeast 377 434 21,000 -387 Level Chicago Center
Fri 11:59:50 AM 40.0019 -86.5058 151° Southeast 378 435 20,200 -960 Descending Indianapolis Center
Fri 12:00:52 PM 39.9139 -86.4408 150° Southeast 367 422 19,000 -1,016 Descending Indianapolis Center
Fri 12:01:54 PM 39.8308 -86.3794 150° Southeast 350 403 18,100 -919 Descending Indianapolis Center
Fri 12:02:43 PM 39.7833 -86.2833 123° Southeast 353 406 17,300 -991 Descending Indianapolis TRACON
Fri 12:03:49 PM 39.7500 -86.1500 108° East 355 409 16,200 -1,000 Descending Indianapolis TRACON
Fri 12:04:49 PM 39.7000 -86.0333 119° Southeast 341 392 15,200 -1,000 Descending Indianapolis TRACON
Fri 12:05:49 PM 39.6667 -85.9167 110° East 346 398 14,200 -750 Descending Indianapolis TRACON
Fri 12:06:49 PM 39.6333 -85.8167 113° Southeast 346 398 13,700 -640 Descending Indianapolis TRACON
Fri 12:07:04 PM 39.6175 -85.7828 121° Southeast 343 395 13,400 -1,091 Descending Indianapolis Center
Fri 12:08:06 PM 39.5808 -85.6722 113° Southeast 336 387 12,300 -1,016 Descending Indianapolis Center
Fri 12:09:08 PM 39.5431 -85.5600 114° Southeast 339 390 11,300 -629 Descending Indianapolis Center
Fri 12:10:10 PM 39.4986 -85.4508 118° Southeast 341 392 11,000 -146 Descending Indianapolis Center
Fri 12:11:11 PM 39.4458 -85.3539 125° Southeast 332 382 11,000  Level Indianapolis Center
Fri 12:12:13 PM 39.3936 -85.2569 125° Southeast 329 379 11,000 -290 Level Indianapolis Center
Fri 12:13:15 PM 39.3503 -85.1378 115° Southeast 306 352 10,400 -1,113 Descending Indianapolis Center
Fri 12:14:17 PM 39.3372 -85.0419 100° East 275 316 8,700 -1,645 Descending Indianapolis Center
Fri 12:15:19 PM 39.3250 -84.9478 99° East 269 310 7,000 -1,597 Descending Indianapolis Center
Fri 12:16:21 PM 39.3133 -84.8575 99° East 257 296 5,400 -1,403 Descending Indianapolis Center
Fri 12:17:23 PM 39.2825 -84.7811 118° Southeast 252 290 4,100 -1,099 Descending Indianapolis Center
Fri 12:18:32 PM 39.2167 -84.7000 136° Southeast 258 297 3,000 -554 Descending Cincinnati TRACON
Fri 12:19:33 PM 39.1667 -84.6667 153° Southeast 176 203 2,900 -98 Descending Cincinnati TRACON

Login

Don't have an account? Register now (free) for customized features, flight alerts, and more!